SYN001 EKCH-EDDH
Flight info
| Callsign | SYN001 |
|---|---|
| Flight time | 0h 31m |
| Altitude | 24000 |
| Route | NEXEN T503 MICOS N850 BOGMU BOGMU3P |
| Aircraft | BCS3/M-SBDE2E3GIRWXY/LB1 |
Departure
| Time | 2026-05-04 20:38 |
|---|---|
| Airport | Copenhagen Kastrup Airport (EKCH) |
Arrival
| Time | 2026-05-04 21:10 |
|---|---|
| Airport | Hamburg Helmut Schmidt Airport (EDDH) |
| Time | Latitude | Longitude | Altitude | Speed | Heading |
|---|---|---|---|---|---|
| 2026-05-04 20:21 | 55.62714 | 12.64086 | 30 ft | 0 kts | 32° |
| 2026-05-04 20:27 | 55.62712 | 12.64084 | 28 ft | 2 kts | 32° |
| 2026-05-04 20:28 | 55.62699 | 12.64068 | 29 ft | 2 kts | 44° |
| 2026-05-04 20:28 | 55.62688 | 12.64044 | 27 ft | 2 kts | 72° |
| 2026-05-04 20:28 | 55.62686 | 12.64015 | 27 ft | 2 kts | 99° |
| 2026-05-04 20:28 | 55.62690 | 12.63988 | 30 ft | 2 kts | 125° |
| 2026-05-04 20:29 | 55.62693 | 12.63981 | 30 ft | 0 kts | 128° |
| 2026-05-04 20:33 | 55.62693 | 12.63982 | 30 ft | 1 kts | 128° |
| 2026-05-04 20:33 | 55.62663 | 12.64048 | 29 ft | 19 kts | 129° |
| 2026-05-04 20:33 | 55.62576 | 12.64265 | 25 ft | 23 kts | 123° |
| 2026-05-04 20:34 | 55.62495 | 12.64459 | 22 ft | 15 kts | 146° |
| 2026-05-04 20:34 | 55.62407 | 12.64458 | 21 ft | 13 kts | 192° |
| 2026-05-04 20:34 | 55.62363 | 12.64435 | 21 ft | 0 kts | 197° |
| 2026-05-04 20:34 | 55.62361 | 12.64434 | 21 ft | 1 kts | 197° |
| 2026-05-04 20:35 | 55.62351 | 12.64428 | 21 ft | 2 kts | 197° |
| 2026-05-04 20:35 | 55.62331 | 12.64418 | 22 ft | 4 kts | 197° |
| 2026-05-04 20:35 | 55.62291 | 12.64396 | 21 ft | 11 kts | 197° |
| 2026-05-04 20:35 | 55.62178 | 12.64328 | 17 ft | 22 kts | 204° |
| 2026-05-04 20:36 | 55.62021 | 12.64199 | 22 ft | 25 kts | 205° |
| 2026-05-04 20:36 | 55.61986 | 12.64171 | 24 ft | 3 kts | 205° |
| 2026-05-04 20:36 | 55.61972 | 12.64159 | 24 ft | 2 kts | 205° |
| 2026-05-04 20:36 | 55.61928 | 12.64122 | 27 ft | 14 kts | 206° |
| 2026-05-04 20:37 | 55.61825 | 12.64072 | 29 ft | 16 kts | 177° |
| 2026-05-04 20:37 | 55.61709 | 12.64083 | 29 ft | 17 kts | 177° |
| 2026-05-04 20:37 | 55.61599 | 12.64024 | 28 ft | 18 kts | 223° |
| 2026-05-04 20:37 | 55.61495 | 12.63858 | 26 ft | 22 kts | 221° |
| 2026-05-04 20:38 | 55.61225 | 12.63444 | 29 ft | 89 kts | 221° |
| 2026-05-04 20:38 | 55.60579 | 12.62452 | 130 ft | 144 kts | 221° |
| 2026-05-04 20:38 | 55.59806 | 12.61344 | 1020 ft | 148 kts | 221° |
| 2026-05-04 20:38 | 55.58964 | 12.60239 | 1873 ft | 157 kts | 219° |
| 2026-05-04 20:39 | 55.58054 | 12.59128 | 2837 ft | 159 kts | 220° |
| 2026-05-04 20:39 | 55.57219 | 12.57725 | 3683 ft | 171 kts | 230° |
| 2026-05-04 20:39 | 55.56348 | 12.56176 | 4512 ft | 185 kts | 224° |
| 2026-05-04 20:39 | 55.55280 | 12.54751 | 5346 ft | 200 kts | 219° |
| 2026-05-04 20:40 | 55.54133 | 12.53343 | 6375 ft | 201 kts | 219° |
| 2026-05-04 20:40 | 55.52970 | 12.51924 | 7302 ft | 205 kts | 219° |
| 2026-05-04 20:40 | 55.51741 | 12.50417 | 8052 ft | 224 kts | 219° |
| 2026-05-04 20:40 | 55.50408 | 12.48782 | 8925 ft | 241 kts | 219° |
| 2026-05-04 20:41 | 55.48985 | 12.47038 | 9809 ft | 258 kts | 218° |
| 2026-05-04 20:41 | 55.47482 | 12.45200 | 10543 ft | 273 kts | 218° |
| 2026-05-04 20:41 | 55.45879 | 12.43240 | 11212 ft | 288 kts | 218° |
| 2026-05-04 20:41 | 55.44184 | 12.41171 | 11790 ft | 304 kts | 218° |
| 2026-05-04 20:42 | 55.42430 | 12.39036 | 12641 ft | 307 kts | 218° |
| 2026-05-04 20:42 | 55.40650 | 12.36873 | 13532 ft | 310 kts | 218° |
| 2026-05-04 20:42 | 55.38863 | 12.34702 | 14307 ft | 314 kts | 218° |
| 2026-05-04 20:42 | 55.37049 | 12.32499 | 15050 ft | 319 kts | 218° |
| 2026-05-04 20:43 | 55.35203 | 12.30259 | 15797 ft | 323 kts | 218° |
| 2026-05-04 20:43 | 55.33341 | 12.28002 | 16533 ft | 328 kts | 218° |
| 2026-05-04 20:43 | 55.31476 | 12.25745 | 17245 ft | 331 kts | 218° |
| 2026-05-04 20:43 | 55.29562 | 12.23429 | 17968 ft | 336 kts | 218° |
| 2026-05-04 20:44 | 55.27625 | 12.21089 | 18619 ft | 339 kts | 218° |
| 2026-05-04 20:44 | 55.25673 | 12.18734 | 19264 ft | 342 kts | 218° |
| 2026-05-04 20:44 | 55.23705 | 12.16362 | 19883 ft | 344 kts | 218° |
| 2026-05-04 20:44 | 55.21724 | 12.13978 | 20502 ft | 347 kts | 218° |
| 2026-05-04 20:45 | 55.19732 | 12.11557 | 21081 ft | 349 kts | 219° |
| 2026-05-04 20:45 | 55.17761 | 12.09044 | 21661 ft | 352 kts | 220° |
| 2026-05-04 20:45 | 55.15778 | 12.06498 | 22240 ft | 354 kts | 220° |
| 2026-05-04 20:45 | 55.13785 | 12.03943 | 22815 ft | 356 kts | 220° |
| 2026-05-04 20:46 | 55.11779 | 12.01374 | 23342 ft | 359 kts | 220° |
| 2026-05-04 20:46 | 55.09758 | 11.98792 | 23797 ft | 362 kts | 220° |
| 2026-05-04 20:46 | 55.07696 | 11.96158 | 23958 ft | 371 kts | 220° |
| 2026-05-04 20:46 | 55.05652 | 11.93557 | 23978 ft | 362 kts | 220° |
| 2026-05-04 20:47 | 55.03644 | 11.91009 | 23976 ft | 355 kts | 220° |
| 2026-05-04 20:47 | 55.01626 | 11.88444 | 23973 ft | 362 kts | 220° |
| 2026-05-04 20:47 | 54.99586 | 11.85856 | 23963 ft | 361 kts | 220° |
| 2026-05-04 20:47 | 54.97567 | 11.83301 | 23975 ft | 357 kts | 220° |
| 2026-05-04 20:48 | 54.95560 | 11.80762 | 23973 ft | 359 kts | 220° |
| 2026-05-04 20:48 | 54.93527 | 11.78192 | 23972 ft | 359 kts | 220° |
| 2026-05-04 20:48 | 54.91514 | 11.75653 | 23973 ft | 357 kts | 220° |
| 2026-05-04 20:48 | 54.89501 | 11.73117 | 23970 ft | 358 kts | 220° |
| 2026-05-04 20:49 | 54.87489 | 11.70585 | 23967 ft | 358 kts | 220° |
| 2026-05-04 20:49 | 54.85472 | 11.68051 | 23970 ft | 356 kts | 220° |
| 2026-05-04 20:49 | 54.83463 | 11.65529 | 23971 ft | 357 kts | 220° |
| 2026-05-04 20:49 | 54.81473 | 11.63034 | 23976 ft | 357 kts | 220° |
| 2026-05-04 20:50 | 54.79438 | 11.60486 | 23973 ft | 357 kts | 220° |
| 2026-05-04 20:50 | 54.77442 | 11.57990 | 23975 ft | 357 kts | 220° |
| 2026-05-04 20:50 | 54.75427 | 11.55474 | 23972 ft | 357 kts | 220° |
| 2026-05-04 20:50 | 54.73411 | 11.52961 | 23972 ft | 357 kts | 220° |
| 2026-05-04 20:51 | 54.71397 | 11.50452 | 23979 ft | 357 kts | 220° |
| 2026-05-04 20:51 | 54.69381 | 11.47943 | 23981 ft | 357 kts | 220° |
| 2026-05-04 20:51 | 54.67365 | 11.45439 | 23979 ft | 356 kts | 220° |
| 2026-05-04 20:51 | 54.65355 | 11.42944 | 23978 ft | 356 kts | 221° |
| 2026-05-04 20:52 | 54.63341 | 11.40448 | 23975 ft | 357 kts | 221° |
| 2026-05-04 20:52 | 54.61322 | 11.37949 | 23982 ft | 357 kts | 221° |
| 2026-05-04 20:52 | 54.59308 | 11.35459 | 23979 ft | 356 kts | 220° |
| 2026-05-04 20:52 | 54.57292 | 11.32969 | 23975 ft | 357 kts | 220° |
| 2026-05-04 20:53 | 54.55275 | 11.30484 | 23980 ft | 356 kts | 220° |
| 2026-05-04 20:53 | 54.53252 | 11.28014 | 23974 ft | 356 kts | 220° |
| 2026-05-04 20:53 | 54.51228 | 11.25548 | 23980 ft | 357 kts | 220° |
| 2026-05-04 20:53 | 54.49203 | 11.23085 | 23983 ft | 356 kts | 220° |
| 2026-05-04 20:54 | 54.47178 | 11.20626 | 23981 ft | 356 kts | 220° |
| 2026-05-04 20:54 | 54.45164 | 11.18159 | 23981 ft | 355 kts | 221° |
| 2026-05-04 20:54 | 54.43191 | 11.15610 | 23975 ft | 354 kts | 221° |
| 2026-05-04 20:54 | 54.41198 | 11.13009 | 23066 ft | 365 kts | 221° |
| 2026-05-04 20:55 | 54.39205 | 11.10409 | 22239 ft | 365 kts | 221° |
| 2026-05-04 20:55 | 54.37163 | 11.07752 | 21433 ft | 363 kts | 220° |
| 2026-05-04 20:55 | 54.35153 | 11.05139 | 20664 ft | 361 kts | 220° |
| 2026-05-04 20:55 | 54.33175 | 11.02572 | 19928 ft | 359 kts | 220° |
| 2026-05-04 20:56 | 54.31230 | 11.00053 | 19199 ft | 344 kts | 220° |
| 2026-05-04 20:56 | 54.29345 | 10.97616 | 18486 ft | 334 kts | 220° |
| 2026-05-04 20:56 | 54.27500 | 10.95231 | 17712 ft | 331 kts | 220° |
| 2026-05-04 20:56 | 54.25668 | 10.92863 | 16920 ft | 329 kts | 220° |
| 2026-05-04 20:57 | 54.23850 | 10.90519 | 16142 ft | 325 kts | 220° |
| 2026-05-04 20:57 | 54.22054 | 10.88204 | 15384 ft | 323 kts | 219° |
| 2026-05-04 20:57 | 54.20258 | 10.85893 | 14652 ft | 321 kts | 219° |
| 2026-05-04 20:57 | 54.18480 | 10.83606 | 13927 ft | 318 kts | 219° |
| 2026-05-04 20:58 | 54.16719 | 10.81342 | 13142 ft | 316 kts | 219° |
| 2026-05-04 20:58 | 54.14988 | 10.79119 | 12129 ft | 314 kts | 219° |
| 2026-05-04 20:58 | 54.13266 | 10.76913 | 11435 ft | 303 kts | 219° |
| 2026-05-04 20:58 | 54.11669 | 10.74873 | 11087 ft | 277 kts | 219° |
| 2026-05-04 20:59 | 54.10106 | 10.72872 | 10755 ft | 280 kts | 219° |
| 2026-05-04 20:59 | 54.08581 | 10.70923 | 10629 ft | 266 kts | 219° |
| 2026-05-04 20:59 | 54.07049 | 10.68962 | 10326 ft | 284 kts | 219° |
| 2026-05-04 20:59 | 54.05473 | 10.66947 | 9912 ft | 280 kts | 219° |
| 2026-05-04 21:00 | 54.03932 | 10.64983 | 9529 ft | 273 kts | 219° |
| 2026-05-04 21:00 | 54.02427 | 10.63066 | 9192 ft | 268 kts | 219° |
| 2026-05-04 21:00 | 54.00936 | 10.61168 | 8836 ft | 267 kts | 219° |
| 2026-05-04 21:00 | 53.99453 | 10.59281 | 8478 ft | 265 kts | 219° |
| 2026-05-04 21:01 | 53.97997 | 10.57428 | 8132 ft | 263 kts | 219° |
| 2026-05-04 21:01 | 53.96512 | 10.55539 | 7777 ft | 262 kts | 219° |
| 2026-05-04 21:01 | 53.95073 | 10.53712 | 7444 ft | 261 kts | 219° |
| 2026-05-04 21:01 | 53.93621 | 10.51869 | 7093 ft | 260 kts | 219° |
| 2026-05-04 21:02 | 53.92175 | 10.50035 | 6748 ft | 259 kts | 219° |
| 2026-05-04 21:02 | 53.90735 | 10.48210 | 6409 ft | 258 kts | 219° |
| 2026-05-04 21:02 | 53.89302 | 10.46396 | 6055 ft | 256 kts | 219° |
| 2026-05-04 21:02 | 53.87873 | 10.44585 | 5717 ft | 257 kts | 219° |
| 2026-05-04 21:03 | 53.86447 | 10.42781 | 5375 ft | 252 kts | 219° |
| 2026-05-04 21:03 | 53.85127 | 10.41116 | 5048 ft | 226 kts | 219° |
| 2026-05-04 21:03 | 53.83954 | 10.39505 | 4783 ft | 213 kts | 223° |
| 2026-05-04 21:03 | 53.82844 | 10.37835 | 4488 ft | 213 kts | 224° |
| 2026-05-04 21:04 | 53.81763 | 10.36134 | 4184 ft | 212 kts | 229° |
| 2026-05-04 21:04 | 53.80775 | 10.34307 | 4001 ft | 211 kts | 219° |
| 2026-05-04 21:04 | 53.79658 | 10.32691 | 4017 ft | 216 kts | 227° |
| 2026-05-04 21:04 | 53.78649 | 10.30802 | 3997 ft | 212 kts | 230° |
| 2026-05-04 21:05 | 53.77708 | 10.28936 | 3991 ft | 207 kts | 231° |
| 2026-05-04 21:05 | 53.76779 | 10.27058 | 3995 ft | 209 kts | 231° |
| 2026-05-04 21:05 | 53.75848 | 10.25163 | 3884 ft | 211 kts | 232° |
| 2026-05-04 21:05 | 53.74912 | 10.23252 | 3633 ft | 209 kts | 231° |
| 2026-05-04 21:06 | 53.74020 | 10.21428 | 3342 ft | 197 kts | 232° |
| 2026-05-04 21:06 | 53.73169 | 10.19689 | 3071 ft | 187 kts | 232° |
| 2026-05-04 21:06 | 53.72360 | 10.18028 | 2825 ft | 182 kts | 232° |
| 2026-05-04 21:06 | 53.71563 | 10.16374 | 2580 ft | 181 kts | 232° |
| 2026-05-04 21:07 | 53.70790 | 10.14776 | 2340 ft | 170 kts | 232° |
| 2026-05-04 21:07 | 53.70062 | 10.13272 | 2110 ft | 163 kts | 232° |
| 2026-05-04 21:07 | 53.69369 | 10.11747 | 1889 ft | 162 kts | 234° |
| 2026-05-04 21:07 | 53.68677 | 10.10270 | 1667 ft | 159 kts | 232° |
| 2026-05-04 21:08 | 53.67968 | 10.08845 | 1445 ft | 156 kts | 231° |
| 2026-05-04 21:08 | 53.67285 | 10.07466 | 1243 ft | 148 kts | 232° |
| 2026-05-04 21:08 | 53.66656 | 10.06158 | 989 ft | 145 kts | 233° |
| 2026-05-04 21:08 | 53.66023 | 10.04873 | 804 ft | 141 kts | 232° |
| 2026-05-04 21:09 | 53.65391 | 10.03626 | 624 ft | 138 kts | 232° |
| 2026-05-04 21:09 | 53.64779 | 10.02370 | 451 ft | 139 kts | 234° |
| 2026-05-04 21:09 | 53.64173 | 10.01106 | 264 ft | 138 kts | 233° |
| 2026-05-04 21:09 | 53.63559 | 9.99869 | 85 ft | 137 kts | 232° |
| 2026-05-04 21:10 | 53.63034 | 9.98797 | 49 ft | 89 kts | 230° |
| 2026-05-04 21:10 | 53.62797 | 9.98364 | 50 ft | 27 kts | 205° |
| 2026-05-04 21:10 | 53.62670 | 9.98458 | 48 ft | 19 kts | 142° |
| 2026-05-04 21:10 | 53.62581 | 9.98563 | 48 ft | 0 kts | 152° |
| 2026-05-04 21:11 | 53.62577 | 9.98567 | 48 ft | 2 kts | 152° |
| 2026-05-04 21:11 | 53.62559 | 9.98583 | 47 ft | 4 kts | 152° |
| 2026-05-04 21:11 | 53.62529 | 9.98619 | 47 ft | 6 kts | 131° |
| 2026-05-04 21:11 | 53.62519 | 9.98700 | 47 ft | 8 kts | 85° |
| 2026-05-04 21:12 | 53.62530 | 9.98807 | 48 ft | 11 kts | 80° |
| 2026-05-04 21:12 | 53.62551 | 9.98987 | 45 ft | 19 kts | 78° |
| 2026-05-04 21:12 | 53.62578 | 9.99220 | 47 ft | 21 kts | 79° |
| 2026-05-04 21:12 | 53.62606 | 9.99475 | 46 ft | 23 kts | 79° |
| 2026-05-04 21:13 | 53.62629 | 9.99683 | 46 ft | 12 kts | 79° |
| 2026-05-04 21:13 | 53.62638 | 9.99751 | 43 ft | 0 kts | 67° |
| 2026-05-04 21:13 | 53.62640 | 9.99757 | 44 ft | 1 kts | 67° |
| 2026-05-04 21:13 | 53.62658 | 9.99810 | 47 ft | 14 kts | 51° |
| 2026-05-04 21:14 | 53.62716 | 9.99879 | 48 ft | 11 kts | 28° |
| 2026-05-04 21:14 | 53.62760 | 9.99921 | 46 ft | 12 kts | 29° |
| 2026-05-04 21:14 | 53.62840 | 9.99997 | 47 ft | 14 kts | 33° |
| 2026-05-04 21:14 | 53.62916 | 10.00103 | 47 ft | 9 kts | 33° |
| 2026-05-04 21:15 | 53.62973 | 10.00159 | 48 ft | 10 kts | 30° |
| 2026-05-04 21:15 | 53.63038 | 10.00221 | 49 ft | 11 kts | 30° |
| 2026-05-04 21:15 | 53.63115 | 10.00259 | 50 ft | 12 kts | 359° |
| 2026-05-04 21:15 | 53.63162 | 10.00281 | 48 ft | 6 kts | 60° |
| 2026-05-04 21:16 | 53.63165 | 10.00337 | 50 ft | 5 kts | 82° |
| 2026-05-04 21:16 | 53.63167 | 10.00363 | 51 ft | 0 kts | 82° |